If you wish to contribute or participate in the discussions about articles you are invited to join SKYbrary as a registered user

Biarritz-Bayonne/Anglet

From SKYbrary Wiki
LFBZ
Airport
ICAO: LFBZ
Summary
Name Biarritz-Bayonne/Anglet
Region Europe
Territory France FR.gif
Location Biarritz-Bayonne/Anglet, Aquitaine
Serving
Coordinates 43° 28' 6.0509", -1° 31' 22.83"
Runways
Designator Length Width Surface ROPS
9/27 2250 m7,381.89 ft 45 m147.638 ft ASP yes/yes
METAR
Observation LFBZ 241700Z AUTO 33005KT 290V360 CAVOK 21/19 Q1017 NOSIG
Station Biarritz
Date/Time 24 September 2017 17:00:00
Wind direction 330°
Wind speed 05 kts
Lowest cloud amount clouds and visibility OK
Temperature 21°C
Dew point 19°C
Humidity 88%
QNH 1017 hPa
Weather condition n/a

WX
Tag(s) Fog

Biarritz-Bayonne/Anglet Airport

ICAO: LFBZ IATA: BIQ

Description

International airport serving Biarritz.

Climatology

Temperate Marine climate/Oceanic climate (Köppen climate classification Cfb). Moderately cool summer and comparatively warm winter with a temperature range of only 14°C287.15 K
57.2 °F
516.87 °R
. Prevailing south-westerly winds from the Atlantic Ocean.

Maps

Terrain

Loading map...

Airport Layout

Loading map...



Accidents & Serious Incidents at or in vicinity of LFBZ

None on SKYbrary